createdAt,value
2022-09-28T00:01:21.382Z,1.83
2022-09-28T00:03:50.243Z,2.03
2022-09-28T00:06:24.600Z,2.95
2022-09-28T00:08:52.327Z,4.55
2022-09-28T00:11:21.805Z,5.45
2022-09-28T00:13:51.770Z,4.40
2022-09-28T00:16:21.076Z,4.63
2022-09-28T00:18:50.449Z,2.92
2022-09-28T00:21:23.099Z,3.30
2022-09-28T00:24:13.466Z,3.80
2022-09-28T00:26:43.785Z,4.22
2022-09-28T00:29:24.095Z,4.78
2022-09-28T00:31:53.513Z,3.35
2022-09-28T00:34:20.938Z,3.00
2022-09-28T00:36:48.843Z,3.10
2022-09-28T00:39:17.652Z,2.90
2022-09-28T00:41:46.247Z,2.63
2022-09-28T00:44:47.704Z,1.88
2022-09-28T00:47:14.843Z,1.45
2022-09-28T00:49:56.051Z,1.30
2022-09-28T00:52:44.663Z,1.15
2022-09-28T00:55:21.782Z,1.00
2022-09-28T00:57:56.923Z,1.00
2022-09-28T01:00:24.595Z,1.38
2022-09-28T01:02:51.726Z,1.00
2022-09-28T01:05:20.587Z,1.02
2022-09-28T01:07:48.710Z,0.77
2022-09-28T01:10:15.800Z,1.85
2022-09-28T01:12:42.894Z,1.17
2022-09-28T01:15:11.090Z,0.70
2022-09-28T01:17:51.088Z,1.80
2022-09-28T01:20:27.764Z,1.48
2022-09-28T01:23:32.360Z,1.75
2022-09-28T01:26:37.970Z,1.30
2022-09-28T01:29:20.838Z,3.22
2022-09-28T01:31:59.317Z,2.25
2022-09-28T01:34:41.352Z,2.03
2022-09-28T01:37:11.438Z,2.45
2022-09-28T01:39:43.733Z,0.80
2022-09-28T01:42:22.644Z,0.80
2022-09-28T01:44:53.071Z,0.95
2022-09-28T01:47:24.179Z,1.08
2022-09-28T01:50:03.195Z,1.05
2022-09-28T01:52:40.614Z,1.92
2022-09-28T01:55:14.318Z,0.80
2022-09-28T01:57:51.312Z,1.08
2022-09-28T02:00:21.219Z,0.98
2022-09-28T02:02:54.728Z,1.30
2022-09-28T02:05:33.450Z,1.20
2022-09-28T02:08:10.479Z,0.70
2022-09-28T02:10:45.678Z,1.42
2022-09-28T02:13:20.798Z,1.05
2022-09-28T02:16:00.301Z,0.60
2022-09-28T02:18:27.611Z,0.82
2022-09-28T02:21:09.096Z,0.85
2022-09-28T02:23:39.808Z,0.73
2022-09-28T02:26:15.666Z,1.05
2022-09-28T02:28:43.346Z,0.77
2022-09-28T02:31:10.510Z,1.08
2022-09-28T02:33:42.903Z,0.88
2022-09-28T02:36:10.930Z,0.60
2022-09-28T02:38:39.566Z,0.70
2022-09-28T02:41:27.311Z,0.85
2022-09-28T02:44:16.056Z,1.05
2022-09-28T02:47:05.278Z,0.73
2022-09-28T02:49:53.695Z,0.73
2022-09-28T02:52:52.098Z,1.63
2022-09-28T02:55:34.321Z,1.02
2022-09-28T02:58:10.182Z,0.77
2022-09-28T03:03:37.781Z,0.70
2022-09-28T03:06:09.926Z,0.52
2022-09-28T03:08:54.631Z,0.75
2022-09-28T03:11:35.202Z,1.08
2022-09-28T03:14:04.281Z,0.60
2022-09-28T03:16:45.673Z,1.27
2022-09-28T03:19:13.708Z,1.05
2022-09-28T03:21:41.466Z,0.70
2022-09-28T03:24:11.194Z,0.70
2022-09-28T03:26:39.340Z,0.95
2022-09-28T03:29:07.759Z,1.52
2022-09-28T03:31:35.799Z,0.70
2022-09-28T03:34:03.338Z,1.13
2022-09-28T03:36:31.184Z,0.88
2022-09-28T03:38:59.694Z,0.95
2022-09-28T03:41:27.988Z,0.73
2022-09-28T03:43:55.043Z,0.60
2022-09-28T03:46:24.529Z,0.90
2022-09-28T03:48:58.368Z,0.85
2022-09-28T03:51:26.375Z,1.33
2022-09-28T03:53:53.874Z,0.95
2022-09-28T03:56:21.285Z,1.25
2022-09-28T03:58:48.361Z,2.17
2022-09-28T04:01:18.054Z,0.50
2022-09-28T04:03:47.877Z,0.73
2022-09-28T04:06:15.362Z,1.48
2022-09-28T04:08:43.563Z,0.90
2022-09-28T04:11:11.230Z,0.93
2022-09-28T04:13:39.895Z,1.00
2022-09-28T04:16:11.491Z,1.27
2022-09-28T04:18:42.976Z,0.70
2022-09-28T04:21:15.619Z,1.17
2022-09-28T04:23:50.517Z,0.80
2022-09-28T04:26:23.686Z,1.55
2022-09-28T04:29:09.821Z,0.65
2022-09-28T04:31:51.318Z,1.45
2022-09-28T04:34:23.490Z,1.08
2022-09-28T04:36:51.510Z,1.05
2022-09-28T04:39:19.578Z,2.45
2022-09-28T04:41:49.819Z,0.98
2022-09-28T04:44:17.218Z,0.77
2022-09-28T04:46:45.909Z,1.77
2022-09-28T04:49:39.472Z,1.08
2022-09-28T04:52:11.019Z,1.52
2022-09-28T04:54:40.885Z,1.33
2022-09-28T04:57:08.235Z,0.95
2022-09-28T04:59:37.662Z,5.00
2022-09-28T05:02:05.325Z,3.38
2022-09-28T05:04:41.606Z,2.60
2022-09-28T05:07:36.905Z,1.30
2022-09-28T05:10:07.070Z,2.50
2022-09-28T05:12:34.686Z,1.95
2022-09-28T05:15:01.773Z,2.30
2022-09-28T05:17:29.727Z,1.83
2022-09-28T05:20:07.325Z,1.20
2022-09-28T05:22:34.703Z,1.77
2022-09-28T05:25:02.986Z,2.13
2022-09-28T05:27:36.699Z,2.08
2022-09-28T05:30:09.075Z,1.55
2022-09-28T05:33:14.678Z,1.95
2022-09-28T05:35:45.972Z,1.00
2022-09-28T05:38:15.348Z,1.92
2022-09-28T05:40:44.274Z,1.52
2022-09-28T05:43:12.157Z,1.20
2022-09-28T05:45:39.473Z,1.20
2022-09-28T05:48:06.535Z,1.73
2022-09-28T05:50:33.935Z,1.13
2022-09-28T05:53:09.317Z,1.35
2022-09-28T05:55:40.165Z,2.00
2022-09-28T05:58:08.435Z,2.25
2022-09-28T06:00:36.258Z,1.30
2022-09-28T06:03:09.228Z,2.30
2022-09-28T06:05:38.922Z,3.45
2022-09-28T06:08:08.391Z,2.10
2022-09-28T06:10:36.029Z,1.90
2022-09-28T06:13:03.237Z,2.03
2022-09-28T06:15:33.941Z,1.20
2022-09-28T06:18:07.436Z,1.85
2022-09-28T06:20:43.284Z,1.45
2022-09-28T06:23:17.803Z,0.82
2022-09-28T06:25:44.979Z,1.60
2022-09-28T06:28:14.567Z,1.63
2022-09-28T06:30:43.730Z,2.72
2022-09-28T06:33:15.269Z,5.50
2022-09-28T06:35:42.553Z,4.55
2022-09-28T06:38:09.944Z,5.47
2022-09-28T06:40:38.410Z,3.63
2022-09-28T06:43:10.656Z,4.30
2022-09-28T06:45:56.376Z,2.97
2022-09-28T06:48:50.298Z,3.45
2022-09-28T06:51:36.836Z,3.25
2022-09-28T06:54:30.262Z,4.63
2022-09-28T06:57:18.167Z,3.65
2022-09-28T06:59:47.209Z,3.28
2022-09-28T07:02:15.197Z,2.60
2022-09-28T07:05:12.644Z,3.58
2022-09-28T07:07:58.402Z,5.80
2022-09-28T07:10:50.459Z,6.38
2022-09-28T07:13:49.207Z,4.53
2022-09-28T07:16:21.686Z,6.90
2022-09-28T07:18:53.081Z,5.75
2022-09-28T07:21:28.903Z,5.82
2022-09-28T07:24:00.064Z,6.15
2022-09-28T07:26:45.894Z,6.93
2022-09-28T07:29:38.431Z,6.55
2022-09-28T07:32:22.800Z,5.57
2022-09-28T07:35:11.907Z,6.70
2022-09-28T07:37:46.939Z,5.22
2022-09-28T07:40:32.735Z,5.50
2022-09-28T07:43:07.799Z,5.13
2022-09-28T07:45:38.544Z,6.30
2022-09-28T07:48:06.004Z,6.25
2022-09-28T07:50:33.038Z,7.15
2022-09-28T07:53:11.962Z,5.45
2022-09-28T07:55:56.551Z,6.00
2022-09-28T07:58:49.779Z,5.30
2022-09-28T08:01:39.891Z,7.10
2022-09-28T08:04:10.136Z,7.57
2022-09-28T08:06:41.758Z,5.43
2022-09-28T08:09:12.123Z,9.20
2022-09-28T08:12:00.211Z,8.23
2022-09-28T08:14:47.612Z,5.82
2022-09-28T08:17:34.025Z,5.88
2022-09-28T08:20:24.408Z,4.80
2022-09-28T08:22:51.480Z,6.03
2022-09-28T08:25:19.377Z,5.40
2022-09-28T08:27:46.486Z,5.70
2022-09-28T08:30:14.825Z,5.40
2022-09-28T08:32:51.893Z,5.22
2022-09-28T08:35:42.096Z,5.30
2022-09-28T08:38:31.160Z,5.22
2022-09-28T08:41:44.423Z,4.95
2022-09-28T08:47:54.992Z,4.95
2022-09-28T08:50:51.346Z,4.50
2022-09-28T08:53:35.287Z,5.50
2022-09-28T08:56:29.608Z,5.72
2022-09-28T08:59:09.727Z,5.05
2022-09-28T09:01:42.966Z,4.90
2022-09-28T09:04:15.363Z,4.40
2022-09-28T09:07:43.422Z,5.43
2022-09-28T09:10:50.840Z,4.43
2022-09-28T09:13:53.203Z,5.03
2022-09-28T09:16:42.497Z,5.28
2022-09-28T09:19:45.740Z,4.85
2022-09-28T09:22:40.821Z,5.10
2022-09-28T09:25:19.733Z,5.60
2022-09-28T09:27:50.954Z,5.90
2022-09-28T09:30:25.764Z,5.40
2022-09-28T09:33:30.993Z,4.70
2022-09-28T09:37:18.578Z,5.38
2022-09-28T09:40:35.569Z,4.63
2022-09-28T09:46:33.050Z,4.32
2022-09-28T09:49:27.087Z,3.83
2022-09-28T09:52:12.343Z,3.63
2022-09-28T09:54:46.817Z,4.68
2022-09-28T09:57:51.953Z,4.10
2022-09-28T10:00:34.666Z,4.47
2022-09-28T10:03:25.869Z,3.47
2022-09-28T10:06:23.059Z,3.65
2022-09-28T10:08:58.405Z,4.00
2022-09-28T10:11:32.264Z,3.60
2022-09-28T10:14:00.092Z,4.03
2022-09-28T10:16:45.311Z,2.92
2022-09-28T10:19:23.538Z,2.60
2022-09-28T10:22:16.611Z,2.17
2022-09-28T10:24:46.544Z,1.98
2022-09-28T10:27:44.453Z,1.90
2022-09-28T10:30:25.843Z,2.00
2022-09-28T10:32:59.613Z,2.20
2022-09-28T10:35:42.167Z,2.42
2022-09-28T10:38:19.193Z,2.28
2022-09-28T10:41:01.779Z,2.25
2022-09-28T10:44:06.395Z,2.00
2022-09-28T10:46:44.419Z,2.83
2022-09-28T10:49:18.873Z,3.15
2022-09-28T10:51:56.747Z,2.35
2022-09-28T10:54:29.867Z,1.60
2022-09-28T10:57:00.123Z,1.50
2022-09-28T10:59:48.711Z,1.38
2022-09-28T11:02:38.165Z,2.85
2022-09-28T11:05:22.044Z,1.73
2022-09-28T11:07:51.982Z,2.08
2022-09-28T11:10:29.492Z,1.30
2022-09-28T11:13:03.003Z,1.63
2022-09-28T11:15:33.668Z,1.63
2022-09-28T11:18:32.402Z,1.60
2022-09-28T11:21:15.734Z,0.70
2022-09-28T11:24:01.418Z,0.98
2022-09-28T11:26:42.336Z,1.33
2022-09-28T11:32:04.645Z,1.67
2022-09-28T11:34:58.697Z,1.98
2022-09-28T11:37:51.997Z,1.83
2022-09-28T11:40:54.086Z,1.02
2022-09-28T11:43:30.334Z,1.80
2022-09-28T11:46:09.282Z,1.45
2022-09-28T11:48:45.979Z,1.00
2022-09-28T11:51:26.660Z,0.55
2022-09-28T11:54:01.575Z,0.80
2022-09-28T11:56:39.951Z,0.50
2022-09-28T11:59:32.131Z,1.10
2022-09-28T12:02:12.059Z,1.15
2022-09-28T12:05:22.177Z,0.40
2022-09-28T12:08:02.429Z,0.30
2022-09-28T12:11:46.824Z,0.50
2022-09-28T12:14:34.554Z,0.38
2022-09-28T12:17:25.949Z,0.30
2022-09-28T12:20:01.584Z,0.40
2022-09-28T12:23:14.979Z,0.60
2022-09-28T12:25:46.911Z,1.63
2022-09-28T12:28:34.004Z,0.30
2022-09-28T12:31:15.010Z,0.90
2022-09-28T12:33:47.778Z,0.45
2022-09-28T12:36:26.381Z,1.42
2022-09-28T12:39:35.622Z,0.30
2022-09-28T12:42:16.639Z,0.38
2022-09-28T12:44:49.788Z,0.63
2022-09-28T12:47:23.481Z,0.55
2022-09-28T12:53:28.011Z,0.95
2022-09-28T12:56:24.547Z,1.00
2022-09-28T12:59:06.222Z,1.67
2022-09-28T13:01:48.470Z,1.48
2022-09-28T13:04:37.175Z,0.98
2022-09-28T13:07:49.921Z,2.35
2022-09-28T13:10:22.818Z,1.05
2022-09-28T13:13:10.996Z,1.40
2022-09-28T13:16:06.341Z,0.80
2022-09-28T13:18:42.254Z,0.63
2022-09-28T13:21:28.326Z,0.52
2022-09-28T13:24:09.026Z,0.35
2022-09-28T13:26:46.267Z,0.40
2022-09-28T13:29:16.907Z,3.13
2022-09-28T13:32:05.394Z,0.68
2022-09-28T13:34:35.347Z,0.50
2022-09-28T13:37:17.576Z,0.47
2022-09-28T13:39:44.509Z,2.88
2022-09-28T13:42:42.684Z,1.35
2022-09-28T13:45:22.285Z,1.65
2022-09-28T13:47:57.093Z,0.55
2022-09-28T13:50:46.144Z,0.90
2022-09-28T13:53:51.329Z,0.95
2022-09-28T13:56:40.930Z,0.73
2022-09-28T13:59:29.882Z,0.45
2022-09-28T14:02:13.730Z,0.70
2022-09-28T14:05:03.474Z,2.38
2022-09-28T14:07:37.235Z,0.90
2022-09-28T14:10:24.681Z,1.00
2022-09-28T14:12:55.012Z,1.52
2022-09-28T14:15:37.485Z,1.60
2022-09-28T14:18:16.097Z,2.53
2022-09-28T14:20:56.985Z,3.38
2022-09-28T14:24:02.442Z,3.60
2022-09-28T14:26:48.314Z,2.45
2022-09-28T14:29:28.854Z,1.55
2022-09-28T14:32:20.422Z,2.20
2022-09-28T14:34:56.232Z,1.40
2022-09-28T14:40:40.038Z,1.10
2022-09-28T14:43:28.561Z,1.92
2022-09-28T14:46:18.940Z,2.00
2022-09-28T14:49:19.308Z,0.90
2022-09-28T14:52:02.253Z,2.85
2022-09-28T14:54:57.705Z,2.55
2022-09-28T14:57:28.623Z,2.92
2022-09-28T14:59:59.608Z,2.72
2022-09-28T15:02:38.524Z,2.33
2022-09-28T15:05:47.270Z,1.42
2022-09-28T15:08:14.770Z,1.85
2022-09-28T15:10:47.104Z,2.35
2022-09-28T15:13:32.259Z,2.97
2022-09-28T15:16:07.373Z,2.08
2022-09-28T15:19:02.739Z,0.93
2022-09-28T15:21:36.548Z,0.70
2022-09-28T15:24:23.374Z,0.88
2022-09-28T15:26:50.717Z,1.05
2022-09-28T15:29:23.087Z,0.80
2022-09-28T15:31:54.331Z,1.45
2022-09-28T15:34:50.534Z,1.35
2022-09-28T15:37:39.610Z,1.08
2022-09-28T15:40:15.332Z,0.70
2022-09-28T15:42:45.276Z,1.67
2022-09-28T15:45:36.917Z,1.73
2022-09-28T15:48:39.823Z,2.95
2022-09-28T15:51:12.694Z,2.78
2022-09-28T15:53:56.165Z,3.33
2022-09-28T15:56:23.410Z,5.80
2022-09-28T15:59:15.426Z,6.50
2022-09-28T16:01:44.450Z,5.18
2022-09-28T16:04:40.532Z,6.30
2022-09-28T16:07:10.534Z,6.97
2022-09-28T16:10:03.635Z,9.02
2022-09-28T16:12:37.297Z,6.35
2022-09-28T16:15:07.120Z,5.43
2022-09-28T16:17:35.776Z,4.72
2022-09-28T16:20:18.594Z,5.78
2022-09-28T16:22:49.118Z,5.57
2022-09-28T16:25:24.741Z,6.38
2022-09-28T16:27:54.081Z,6.47
2022-09-28T16:30:45.711Z,6.00
2022-09-28T16:33:32.529Z,6.85
2022-09-28T16:36:03.222Z,6.50
2022-09-28T16:38:30.882Z,10.68
2022-09-28T16:41:02.871Z,12.35
2022-09-28T16:43:35.073Z,24.35
2022-09-28T16:46:13.313Z,22.38
2022-09-28T16:48:49.082Z,21.45
2022-09-28T16:54:10.432Z,23.58
2022-09-28T16:56:37.616Z,10.95
2022-09-28T16:59:04.864Z,7.82
2022-09-28T17:01:33.495Z,6.18
2022-09-28T17:04:01.927Z,5.35
2022-09-28T17:06:28.956Z,8.23
2022-09-28T17:08:56.814Z,7.70
2022-09-28T17:11:25.060Z,8.07
2022-09-28T17:13:52.434Z,5.43
2022-09-28T17:19:22.942Z,7.45
2022-09-28T17:21:52.048Z,4.57
2022-09-28T17:24:19.783Z,6.38
2022-09-28T17:26:50.163Z,6.45
2022-09-28T17:29:17.489Z,6.13
2022-09-28T17:31:46.250Z,5.00
2022-09-28T17:34:16.384Z,3.95
2022-09-28T17:36:44.768Z,4.25
2022-09-28T17:39:18.800Z,4.15
2022-09-28T17:41:46.104Z,3.97
2022-09-28T17:44:16.193Z,4.20
2022-09-28T17:46:46.715Z,3.50
2022-09-28T17:49:14.307Z,4.18
2022-09-28T17:51:41.493Z,4.13
2022-09-28T17:54:08.704Z,4.85
2022-09-28T17:56:36.617Z,3.38
2022-09-28T17:59:07.095Z,4.57
2022-09-28T18:01:38.608Z,7.72
2022-09-28T18:04:08.875Z,7.40
2022-09-28T18:06:39.211Z,9.63
2022-09-28T18:09:06.529Z,7.53
2022-09-28T18:11:34.657Z,5.90
2022-09-28T18:14:01.924Z,4.43
2022-09-28T18:16:29.555Z,4.07
2022-09-28T18:18:58.224Z,2.20
2022-09-28T18:21:25.480Z,2.92
2022-09-28T18:23:52.633Z,2.60
2022-09-28T18:26:19.846Z,2.85
2022-09-28T18:28:47.178Z,2.70
2022-09-28T18:31:16.224Z,3.17
2022-09-28T18:33:44.483Z,3.33
2022-09-28T18:36:12.008Z,3.70
2022-09-28T18:38:39.300Z,2.97
2022-09-28T18:41:10.958Z,3.95
2022-09-28T18:43:38.268Z,5.50
2022-09-28T18:46:11.891Z,5.03
2022-09-28T18:48:40.630Z,6.97
2022-09-28T18:51:12.526Z,7.85
2022-09-28T18:53:40.523Z,7.82
2022-09-28T18:56:09.428Z,10.45
2022-09-28T18:58:38.349Z,10.68
2022-09-28T19:01:29.573Z,9.38
2022-09-28T19:04:07.125Z,8.90
2022-09-28T19:06:37.043Z,7.78
2022-09-28T19:09:04.524Z,7.40
2022-09-28T19:11:31.563Z,7.70
2022-09-28T19:13:58.685Z,6.63
2022-09-28T19:16:28.774Z,7.10
2022-09-28T19:19:01.007Z,5.70
2022-09-28T19:21:28.234Z,4.53
2022-09-28T19:23:55.693Z,4.45
2022-09-28T19:26:26.167Z,4.85
2022-09-28T19:28:54.150Z,3.75
2022-09-28T19:31:22.627Z,4.13
2022-09-28T19:33:50.216Z,4.85
2022-09-28T19:36:19.883Z,4.70
2022-09-28T19:38:46.897Z,4.75
2022-09-28T19:41:39.565Z,3.65
2022-09-28T19:44:10.583Z,2.95
2022-09-28T19:46:40.928Z,2.88
2022-09-28T19:49:14.509Z,3.10
2022-09-28T19:51:56.565Z,3.17
2022-09-28T19:54:35.519Z,4.50
2022-09-28T19:57:07.764Z,3.75
2022-09-28T19:59:37.143Z,4.85
2022-09-28T20:02:05.505Z,6.07
2022-09-28T20:04:32.684Z,3.20
2022-09-28T20:07:00.402Z,3.35
2022-09-28T20:09:29.637Z,4.30
2022-09-28T20:11:57.639Z,3.08
2022-09-28T20:14:26.013Z,3.70
2022-09-28T20:16:57.754Z,3.20
2022-09-28T20:19:24.851Z,3.40
2022-09-28T20:21:51.791Z,3.30
2022-09-28T20:24:18.938Z,3.78
2022-09-28T20:26:46.410Z,3.95
2022-09-28T20:29:13.708Z,4.05
2022-09-28T20:31:41.162Z,4.07
2022-09-28T20:34:09.234Z,3.05
2022-09-28T20:36:36.536Z,5.30
2022-09-28T20:39:04.688Z,2.83
2022-09-28T20:41:36.795Z,3.20
2022-09-28T20:44:06.326Z,3.45
2022-09-28T20:46:37.583Z,3.33
2022-09-28T20:49:05.843Z,3.22
2022-09-28T20:51:33.530Z,3.85
2022-09-28T20:54:01.438Z,2.95
2022-09-28T20:56:37.843Z,3.53
2022-09-28T20:59:10.295Z,3.80
2022-09-28T21:01:38.787Z,2.70
2022-09-28T21:04:08.250Z,2.75
2022-09-28T21:06:37.503Z,2.83
2022-09-28T21:09:06.187Z,3.75
2022-09-28T21:11:35.714Z,4.13
2022-09-28T21:14:05.810Z,3.72
2022-09-28T21:16:34.962Z,3.30
2022-09-28T21:19:02.195Z,3.78
2022-09-28T21:21:29.289Z,3.78
2022-09-28T21:23:58.263Z,4.63
2022-09-28T21:26:28.470Z,4.28
2022-09-28T21:28:58.166Z,4.18
2022-09-28T21:31:29.433Z,3.67
2022-09-28T21:33:57.364Z,4.25
2022-09-28T21:36:25.090Z,4.88
2022-09-28T21:38:53.541Z,4.07
2022-09-28T21:41:20.908Z,3.60
2022-09-28T21:43:47.936Z,3.97
2022-09-28T21:46:15.030Z,3.80
2022-09-28T21:48:42.058Z,4.57
2022-09-28T21:51:12.978Z,4.50
2022-09-28T21:53:40.354Z,4.78
2022-09-28T21:56:09.803Z,4.53
2022-09-28T21:58:37.313Z,4.68
2022-09-28T22:01:14.791Z,4.30
2022-09-28T22:03:44.077Z,4.85
2022-09-28T22:06:11.782Z,4.97
2022-09-28T22:08:40.096Z,5.65
2022-09-28T22:11:08.557Z,5.07
2022-09-28T22:13:46.451Z,4.60
2022-09-28T22:16:15.771Z,5.55
2022-09-28T22:18:43.287Z,5.65
2022-09-28T22:21:12.491Z,6.03
2022-09-28T22:23:40.508Z,4.65
2022-09-28T22:26:13.889Z,5.32
2022-09-28T22:28:46.987Z,4.75
2022-09-28T22:31:14.683Z,5.28
2022-09-28T22:33:41.772Z,5.07
2022-09-28T22:36:09.829Z,5.13
2022-09-28T22:38:37.747Z,6.18
2022-09-28T22:41:04.937Z,5.13
2022-09-28T22:43:32.354Z,5.53
2022-09-28T22:46:07.904Z,4.82
2022-09-28T22:48:35.149Z,5.10
2022-09-28T22:51:03.636Z,4.30
2022-09-28T22:53:31.019Z,5.13
2022-09-28T22:55:59.992Z,5.68
2022-09-28T22:58:27.546Z,5.65
2022-09-28T23:00:56.429Z,4.60
2022-09-28T23:03:23.674Z,4.78
2022-09-28T23:05:55.139Z,6.43
2022-09-28T23:08:23.519Z,4.55
2022-09-28T23:10:51.296Z,7.88
2022-09-28T23:13:18.729Z,5.07
2022-09-28T23:15:59.122Z,5.10
2022-09-28T23:18:28.923Z,5.93
2022-09-28T23:20:57.315Z,4.35
2022-09-28T23:23:24.437Z,5.15
2022-09-28T23:25:52.486Z,4.30
2022-09-28T23:28:20.743Z,6.53
2022-09-28T23:30:47.983Z,7.57
2022-09-28T23:33:16.796Z,5.78
2022-09-28T23:35:44.193Z,6.10
2022-09-28T23:38:17.976Z,5.40
2022-09-28T23:40:46.420Z,6.55
2022-09-28T23:43:14.529Z,5.18
2022-09-28T23:45:43.986Z,5.40
2022-09-28T23:48:11.506Z,6.20
2022-09-28T23:50:38.456Z,5.13
2022-09-28T23:53:05.724Z,4.13
2022-09-28T23:55:32.908Z,5.45
2022-09-28T23:57:59.954Z,5.10
